createdAt,value
2023-02-11T00:00:43.390Z,96.40
2023-02-11T00:01:43.435Z,96.30
2023-02-11T00:02:45.496Z,96.50
2023-02-11T00:03:43.434Z,96.19
2023-02-11T00:04:43.369Z,95.98
2023-02-11T00:05:43.365Z,96.30
2023-02-11T00:06:43.332Z,95.98
2023-02-11T00:07:43.336Z,96.30
2023-02-11T00:08:43.334Z,96.40
2023-02-11T00:09:43.311Z,96.40
2023-02-11T00:10:43.302Z,96.19
2023-02-11T00:11:43.303Z,96.50
2023-02-11T00:12:43.292Z,96.71
2023-02-11T00:13:43.292Z,96.82
2023-02-11T00:14:43.278Z,96.19
2023-02-11T00:15:43.240Z,96.61
2023-02-11T00:16:43.349Z,97.65
2023-02-11T00:17:43.235Z,97.34
2023-02-11T00:18:43.235Z,97.55
2023-02-11T00:19:43.222Z,97.55
2023-02-11T00:20:43.207Z,97.55
2023-02-11T00:21:43.175Z,97.55
2023-02-11T00:22:44.187Z,97.65
2023-02-11T00:23:43.175Z,97.44
2023-02-11T00:24:43.162Z,97.55
2023-02-11T00:25:43.150Z,97.55
2023-02-11T00:26:43.126Z,97.24
2023-02-11T00:27:43.126Z,97.44
2023-02-11T00:28:43.120Z,96.92
2023-02-11T00:29:43.108Z,96.92
2023-02-11T00:30:43.289Z,97.03
2023-02-11T00:31:43.273Z,96.61
2023-02-11T00:32:43.071Z,96.92
2023-02-11T00:33:43.064Z,97.30
2023-02-11T00:34:43.055Z,96.71
2023-02-11T00:35:43.022Z,96.56
2023-02-11T00:37:15.158Z,96.82
2023-02-11T00:37:43.056Z,97.24
2023-02-11T00:38:43.016Z,96.82
2023-02-11T00:39:43.009Z,97.19
2023-02-11T00:40:42.963Z,96.61
2023-02-11T00:41:42.970Z,96.82
2023-02-11T00:42:43.004Z,97.03
2023-02-11T00:43:42.934Z,96.71
2023-02-11T00:44:42.966Z,97.03
2023-02-11T00:45:42.940Z,97.19
2023-02-11T00:46:42.965Z,97.19
2023-02-11T00:47:42.924Z,96.82
2023-02-11T00:48:42.922Z,97.30
2023-02-11T00:49:42.911Z,97.40
2023-02-11T00:50:42.888Z,97.09
2023-02-11T00:51:42.887Z,97.03
2023-02-11T00:52:42.861Z,97.34
2023-02-11T00:53:42.861Z,97.30
2023-02-11T00:54:42.843Z,96.98
2023-02-11T00:55:42.821Z,96.98
2023-02-11T00:56:42.797Z,97.09
2023-02-11T00:57:42.857Z,96.67
2023-02-11T00:58:42.818Z,96.67
2023-02-11T00:59:42.756Z,96.77
2023-02-11T01:00:42.780Z,96.67
2023-02-11T01:01:42.808Z,96.88
2023-02-11T01:02:42.741Z,97.09
2023-02-11T01:03:42.744Z,97.09
2023-02-11T01:04:42.753Z,96.88
2023-02-11T01:05:42.721Z,96.77
2023-02-11T01:06:42.693Z,96.67
2023-02-11T01:07:42.721Z,97.25
2023-02-11T01:08:42.711Z,97.50
2023-02-11T01:09:42.678Z,97.61
2023-02-11T01:10:42.659Z,96.98
2023-02-11T01:11:42.659Z,96.52
2023-02-11T01:12:42.668Z,96.98
2023-02-11T01:13:42.633Z,96.46
2023-02-11T01:14:42.609Z,96.46
2023-02-11T01:15:42.638Z,96.36
2023-02-11T01:16:42.594Z,96.21
2023-02-11T01:17:42.610Z,96.11
2023-02-11T01:18:42.621Z,96.04
2023-02-11T01:19:42.577Z,96.15
2023-02-11T01:20:42.586Z,96.52
2023-02-11T01:21:42.556Z,96.36
2023-02-11T01:22:42.587Z,96.00
2023-02-11T01:23:42.522Z,96.42
2023-02-11T01:24:42.548Z,96.15
2023-02-11T01:25:42.509Z,96.04
2023-02-11T01:26:42.514Z,95.94
2023-02-11T01:27:42.503Z,96.52
2023-02-11T01:28:42.493Z,96.56
2023-02-11T01:29:42.500Z,96.25
2023-02-11T01:30:42.492Z,96.25
2023-02-11T01:31:42.480Z,96.56
2023-02-11T01:32:42.424Z,96.36
2023-02-11T01:33:42.419Z,96.46
2023-02-11T01:34:42.447Z,96.56
2023-02-11T01:35:42.441Z,96.36
2023-02-11T01:36:42.415Z,96.36
2023-02-11T01:37:42.375Z,96.36
2023-02-11T01:38:42.414Z,96.21
2023-02-11T01:39:42.365Z,96.36
2023-02-11T01:40:42.348Z,96.46
2023-02-11T01:41:42.354Z,96.46
2023-02-11T01:42:42.351Z,96.46
2023-02-11T01:43:42.329Z,96.56
2023-02-11T01:44:42.318Z,96.77
2023-02-11T01:45:42.332Z,96.56
2023-02-11T01:46:42.353Z,96.77
2023-02-11T01:47:42.274Z,96.42
2023-02-11T01:48:42.323Z,96.04
2023-02-11T01:49:42.262Z,96.46
2023-02-11T01:50:42.249Z,96.52
2023-02-11T01:51:42.228Z,97.30
2023-02-11T01:52:42.276Z,96.83
2023-02-11T01:53:42.241Z,96.56
2023-02-11T01:54:42.178Z,96.15
2023-02-11T01:55:42.211Z,96.36
2023-02-11T01:56:42.222Z,96.46
2023-02-11T01:57:42.174Z,96.77
2023-02-11T01:58:42.206Z,96.15
2023-02-11T01:59:42.177Z,96.42
2023-02-11T02:00:42.128Z,96.42
2023-02-11T02:01:42.160Z,96.56
2023-02-11T02:02:42.140Z,96.42
2023-02-11T02:03:42.144Z,96.25
2023-02-11T02:04:42.138Z,96.36
2023-02-11T02:05:42.133Z,96.25
2023-02-11T02:06:42.059Z,96.25
2023-02-11T02:07:42.084Z,96.46
2023-02-11T02:08:42.070Z,96.36
2023-02-11T02:09:42.066Z,96.83
2023-02-11T02:10:42.025Z,96.77
2023-02-11T02:11:42.038Z,96.88
2023-02-11T02:12:42.033Z,97.40
2023-02-11T02:13:42.022Z,97.50
2023-02-11T02:14:42.016Z,97.61
2023-02-11T02:15:42.030Z,97.61
2023-02-11T02:16:42.066Z,97.50
2023-02-11T02:17:41.963Z,97.61
2023-02-11T02:18:41.942Z,97.50
2023-02-11T02:19:41.976Z,96.56
2023-02-11T02:20:41.922Z,96.88
2023-02-11T02:21:41.907Z,96.98
2023-02-11T02:22:41.922Z,96.88
2023-02-11T02:23:41.909Z,96.67
2023-02-11T02:24:41.908Z,96.98
2023-02-11T02:25:41.863Z,96.88
2023-02-11T02:26:41.899Z,96.88
2023-02-11T02:27:41.857Z,96.98
2023-02-11T02:28:41.869Z,97.40
2023-02-11T02:29:41.842Z,97.50
2023-02-11T02:30:41.838Z,97.61
2023-02-11T02:31:41.870Z,97.40
2023-02-11T02:32:41.813Z,97.30
2023-02-11T02:33:41.825Z,97.09
2023-02-11T02:34:41.761Z,97.30
2023-02-11T02:35:41.791Z,97.40
2023-02-11T02:36:41.828Z,97.19
2023-02-11T02:37:41.740Z,96.98
2023-02-11T02:38:41.769Z,97.09
2023-02-11T02:39:41.735Z,97.04
2023-02-11T02:40:41.730Z,96.94
2023-02-11T02:41:41.715Z,97.30
2023-02-11T02:42:41.739Z,97.14
2023-02-11T02:43:41.686Z,96.62
2023-02-11T02:44:41.701Z,96.62
2023-02-11T02:45:41.685Z,96.52
2023-02-11T02:46:41.741Z,96.62
2023-02-11T02:47:41.640Z,96.73
2023-02-11T02:48:41.632Z,96.73
2023-02-11T02:49:41.643Z,96.83
2023-02-11T02:50:41.636Z,96.83
2023-02-11T02:51:41.604Z,96.62
2023-02-11T02:52:41.620Z,96.94
2023-02-11T02:53:41.595Z,97.25
2023-02-11T02:54:41.563Z,97.04
2023-02-11T02:55:41.583Z,97.14
2023-02-11T02:56:41.584Z,97.14
2023-02-11T02:57:41.536Z,97.25
2023-02-11T02:58:41.535Z,97.20
2023-02-11T02:59:41.540Z,97.46
2023-02-11T03:00:41.536Z,97.46
2023-02-11T03:01:41.522Z,97.35
2023-02-11T03:02:41.524Z,96.58
2023-02-11T03:03:41.504Z,96.69
2023-02-11T03:04:41.456Z,96.16
2023-02-11T03:05:41.474Z,96.16
2023-02-11T03:06:41.472Z,96.48
2023-02-11T03:07:41.445Z,96.16
2023-02-11T03:08:41.442Z,96.26
2023-02-11T03:09:41.448Z,96.37
2023-02-11T03:10:41.399Z,95.85
2023-02-11T03:11:41.416Z,95.75
2023-02-11T03:12:41.448Z,95.91
2023-02-11T03:13:41.405Z,95.85
2023-02-11T03:14:41.362Z,95.70
2023-02-11T03:15:41.376Z,96.01
2023-02-11T03:16:41.400Z,95.43
2023-02-11T03:17:41.360Z,95.39
2023-02-11T03:18:41.330Z,95.70
2023-02-11T03:19:41.315Z,95.50
2023-02-11T03:20:41.382Z,95.60
2023-02-11T03:21:41.301Z,95.70
2023-02-11T03:22:41.281Z,95.39
2023-02-11T03:23:41.312Z,95.39
2023-02-11T03:24:41.283Z,95.39
2023-02-11T03:25:41.253Z,95.60
2023-02-11T03:26:41.319Z,95.60
2023-02-11T03:27:41.270Z,95.50
2023-02-11T03:28:41.210Z,95.39
2023-02-11T03:29:41.222Z,95.50
2023-02-11T03:30:41.312Z,95.50
2023-02-11T03:31:41.396Z,95.39
2023-02-11T03:32:41.241Z,95.50
2023-02-11T03:33:41.184Z,95.70
2023-02-11T03:34:41.151Z,95.60
2023-02-11T03:35:41.160Z,95.70
2023-02-11T03:36:41.176Z,95.60
2023-02-11T03:37:41.124Z,95.70
2023-02-11T03:38:41.133Z,95.50
2023-02-11T03:39:41.124Z,95.29
2023-02-11T03:40:41.076Z,95.60
2023-02-11T03:41:41.115Z,95.50
2023-02-11T03:42:41.118Z,95.50
2023-02-11T03:43:41.086Z,95.50
2023-02-11T03:44:41.050Z,95.50
2023-02-11T03:45:41.113Z,95.60
2023-02-11T03:46:41.057Z,95.70
2023-02-11T03:47:41.034Z,95.60
2023-02-11T03:48:41.018Z,95.76
2023-02-11T03:49:41.012Z,95.97
2023-02-11T03:50:41.009Z,96.18
2023-02-11T03:51:41.023Z,95.81
2023-02-11T03:52:40.964Z,96.08
2023-02-11T03:53:40.981Z,95.97
2023-02-11T03:54:40.979Z,95.56
2023-02-11T03:55:40.933Z,96.01
2023-02-11T03:56:40.952Z,96.12
2023-02-11T03:57:40.953Z,96.22
2023-02-11T03:58:41.894Z,96.01
2023-02-11T03:59:40.909Z,96.01
2023-02-11T04:00:40.910Z,95.76
2023-02-11T04:01:40.920Z,95.70
2023-02-11T04:02:40.871Z,95.39
2023-02-11T04:03:40.918Z,95.66
2023-02-11T04:04:40.850Z,95.60
2023-02-11T04:05:40.840Z,95.76
2023-02-11T04:06:40.847Z,95.60
2023-02-11T04:07:40.848Z,95.66
2023-02-11T04:08:40.792Z,95.66
2023-02-11T04:09:40.793Z,95.29
2023-02-11T04:10:40.838Z,95.56
2023-02-11T04:11:40.791Z,95.35
2023-02-11T04:12:40.775Z,95.45
2023-02-11T04:13:40.760Z,95.35
2023-02-11T04:14:40.766Z,95.66
2023-02-11T04:15:40.748Z,95.66
2023-02-11T04:16:40.820Z,95.14
2023-02-11T04:17:40.734Z,95.66
2023-02-11T04:18:40.706Z,95.66
2023-02-11T04:19:40.707Z,95.66
2023-02-11T04:20:40.701Z,95.25
2023-02-11T04:21:40.678Z,95.30
2023-02-11T04:22:40.707Z,95.45
2023-02-11T04:23:40.663Z,95.40
2023-02-11T04:24:40.633Z,95.35
2023-02-11T04:25:40.623Z,95.14
2023-02-11T04:26:40.672Z,95.35
2023-02-11T04:27:40.611Z,95.09
2023-02-11T04:28:40.623Z,94.93
2023-02-11T04:29:40.645Z,95.03
2023-02-11T04:30:40.605Z,95.20
2023-02-11T04:31:40.603Z,94.82
2023-02-11T04:32:40.574Z,95.14
2023-02-11T04:33:40.651Z,95.14
2023-02-11T04:34:40.520Z,95.30
2023-02-11T04:35:40.541Z,94.93
2023-02-11T04:36:40.556Z,95.56
2023-02-11T04:37:40.507Z,95.56
2023-02-11T04:38:40.528Z,95.30
2023-02-11T04:39:40.483Z,95.30
2023-02-11T04:40:40.505Z,94.93
2023-02-11T04:41:40.454Z,95.03
2023-02-11T04:42:40.496Z,95.30
2023-02-11T04:43:40.453Z,95.66
2023-02-11T04:44:40.577Z,95.25
2023-02-11T04:45:40.478Z,95.72
2023-02-11T04:46:40.414Z,95.66
2023-02-11T04:47:40.427Z,95.09
2023-02-11T04:48:40.420Z,95.62
2023-02-11T04:49:40.410Z,95.45
2023-02-11T04:50:40.373Z,95.45
2023-02-11T04:51:40.397Z,95.56
2023-02-11T04:52:40.387Z,95.14
2023-02-11T04:53:40.350Z,94.82
2023-02-11T04:54:40.332Z,95.56
2023-02-11T04:55:40.345Z,95.66
2023-02-11T04:56:40.350Z,95.51
2023-02-11T04:57:40.343Z,95.66
2023-02-11T04:58:40.311Z,95.93
2023-02-11T04:59:40.324Z,95.83
2023-02-11T05:00:40.259Z,95.76
2023-02-11T05:01:40.285Z,95.83
2023-02-11T05:02:40.282Z,95.72
2023-02-11T05:03:40.259Z,95.66
2023-02-11T05:04:40.231Z,95.66
2023-02-11T05:05:40.268Z,95.97
2023-02-11T05:06:40.222Z,95.76
2023-02-11T05:07:40.188Z,95.56
2023-02-11T05:08:40.200Z,95.93
2023-02-11T05:09:40.217Z,95.93
2023-02-11T05:10:40.157Z,95.40
2023-02-11T05:11:40.156Z,95.62
2023-02-11T05:12:40.165Z,95.72
2023-02-11T05:13:41.164Z,95.76
2023-02-11T05:14:40.187Z,95.72
2023-02-11T05:15:40.129Z,95.62
2023-02-11T05:16:40.198Z,96.08
2023-02-11T05:17:40.111Z,95.62
2023-02-11T05:18:40.108Z,95.62
2023-02-11T05:19:40.101Z,95.97
2023-02-11T05:20:40.081Z,96.03
2023-02-11T05:21:42.361Z,95.87
2023-02-11T05:22:42.067Z,95.97
2023-02-11T05:23:40.064Z,95.83
2023-02-11T05:24:40.023Z,96.14
2023-02-11T05:25:40.040Z,95.51
2023-02-11T05:26:40.018Z,95.83
2023-02-11T05:27:40.003Z,95.97
2023-02-11T05:28:40.015Z,95.97
2023-02-11T05:29:39.996Z,95.72
2023-02-11T05:30:40.067Z,95.83
2023-02-11T05:31:39.932Z,95.72
2023-02-11T05:32:39.971Z,95.83
2023-02-11T05:33:39.968Z,95.51
2023-02-11T05:34:39.933Z,95.66
2023-02-11T05:35:39.928Z,96.18
2023-02-11T05:36:39.908Z,95.97
2023-02-11T05:37:40.962Z,95.72
2023-02-11T05:38:39.881Z,95.76
2023-02-11T05:39:39.926Z,95.72
2023-02-11T05:40:39.861Z,95.40
2023-02-11T05:41:39.845Z,95.72
2023-02-11T05:42:39.860Z,95.51
2023-02-11T05:43:39.857Z,95.93
2023-02-11T05:44:39.819Z,95.51
2023-02-11T05:45:39.816Z,95.51
2023-02-11T05:46:39.886Z,95.47
2023-02-11T05:47:39.783Z,95.62
2023-02-11T05:48:39.812Z,95.20
2023-02-11T05:49:39.775Z,94.89
2023-02-11T05:50:39.777Z,95.09
2023-02-11T05:51:39.761Z,94.99
2023-02-11T05:52:39.778Z,94.84
2023-02-11T05:53:39.734Z,94.95
2023-02-11T05:54:39.728Z,94.95
2023-02-11T05:55:39.729Z,95.47
2023-02-11T05:56:39.707Z,95.15
2023-02-11T05:57:39.732Z,95.05
2023-02-11T05:58:39.664Z,95.36
2023-02-11T05:59:39.684Z,95.36
2023-02-11T06:00:39.697Z,95.05
2023-02-11T06:01:39.664Z,94.74
2023-02-11T06:02:39.730Z,94.84
2023-02-11T06:03:39.711Z,94.95
2023-02-11T06:04:39.596Z,94.43
2023-02-11T06:05:39.599Z,94.64
2023-02-11T06:06:39.628Z,94.74
2023-02-11T06:07:39.598Z,94.53
2023-02-11T06:08:39.653Z,94.64
2023-02-11T06:09:39.571Z,94.43
2023-02-11T06:10:39.577Z,94.53
2023-02-11T06:11:39.548Z,94.53
2023-02-11T06:12:39.550Z,94.32
2023-02-11T06:13:39.529Z,94.64
2023-02-11T06:14:39.556Z,94.84
2023-02-11T06:15:39.533Z,94.74
2023-02-11T06:16:39.517Z,94.43
2023-02-11T06:17:39.511Z,94.70
2023-02-11T06:18:39.456Z,94.59
2023-02-11T06:19:39.474Z,94.53
2023-02-11T06:20:39.465Z,94.59
2023-02-11T06:21:44.298Z,94.28
2023-02-11T06:22:41.507Z,94.28
2023-02-11T06:23:39.426Z,94.43
2023-02-11T06:24:59.831Z,94.28
2023-02-11T06:25:41.415Z,94.59
2023-02-11T06:26:39.418Z,94.53
2023-02-11T06:27:39.379Z,94.59
2023-02-11T06:28:41.906Z,94.18
2023-02-11T06:29:40.363Z,94.18
2023-02-11T06:30:39.335Z,94.43
2023-02-11T06:31:39.691Z,94.32
2023-02-11T06:32:44.386Z,94.38
2023-02-11T06:33:41.356Z,94.59
2023-02-11T06:34:39.378Z,94.28
2023-02-11T06:35:39.353Z,94.43
2023-02-11T06:36:39.303Z,94.38
2023-02-11T06:38:11.607Z,94.28
2023-02-11T06:38:39.312Z,94.28
2023-02-11T06:39:39.264Z,93.97
2023-02-11T06:40:39.271Z,94.07
2023-02-11T06:41:39.244Z,93.97
2023-02-11T06:42:39.539Z,93.97
2023-02-11T06:43:39.239Z,94.28
2023-02-11T06:44:39.202Z,93.87
2023-02-11T06:45:39.234Z,93.97
2023-02-11T06:46:39.279Z,94.07
2023-02-11T06:47:39.198Z,93.97
2023-02-11T06:48:39.157Z,94.32
2023-02-11T06:49:40.156Z,94.59
2023-02-11T06:50:39.155Z,94.49
2023-02-11T06:51:39.148Z,94.70
2023-02-11T06:52:39.129Z,94.80
2023-02-11T06:53:39.133Z,94.64
2023-02-11T06:54:39.100Z,94.49
2023-02-11T06:55:40.108Z,94.59
2023-02-11T06:56:39.118Z,94.22
2023-02-11T06:57:39.095Z,94.28
2023-02-11T06:58:39.071Z,94.38
2023-02-11T06:59:39.049Z,94.28
2023-02-11T07:00:39.097Z,94.18
2023-02-11T07:01:39.092Z,94.28
2023-02-11T07:02:39.080Z,94.28
2023-02-11T07:03:39.038Z,94.49
2023-02-11T07:04:39.005Z,94.38
2023-02-11T07:05:38.997Z,94.28
2023-02-11T07:06:38.993Z,94.28
2023-02-11T07:07:38.969Z,94.28
2023-02-11T07:08:38.985Z,94.38
2023-02-11T07:09:38.974Z,94.38
2023-02-11T07:10:38.942Z,94.28
2023-02-11T07:11:38.954Z,94.70
2023-02-11T07:12:38.925Z,94.70
2023-02-11T07:13:38.898Z,94.84
2023-02-11T07:14:38.912Z,94.38
2023-02-11T07:15:38.894Z,94.59
2023-02-11T07:16:38.913Z,94.59
2023-02-11T07:17:38.866Z,94.28
2023-02-11T07:18:38.875Z,94.84
2023-02-11T07:19:38.851Z,94.70
2023-02-11T07:20:38.856Z,94.80
2023-02-11T07:21:38.829Z,94.70
2023-02-11T07:22:38.811Z,94.80
2023-02-11T07:23:38.810Z,94.64
2023-02-11T07:24:39.810Z,94.80
2023-02-11T07:25:38.791Z,94.74
2023-02-11T07:26:38.768Z,94.74
2023-02-11T07:27:38.809Z,94.84
2023-02-11T07:28:38.747Z,94.80
2023-02-11T07:29:38.750Z,95.15
2023-02-11T07:30:38.737Z,94.70
2023-02-11T07:31:38.854Z,95.11
2023-02-11T07:32:38.726Z,95.17
2023-02-11T07:33:38.725Z,94.65
2023-02-11T07:34:38.771Z,93.68
2023-02-11T07:35:40.982Z,93.16
2023-02-11T07:36:38.661Z,92.49
2023-02-11T07:37:38.695Z,91.76
2023-02-11T07:38:38.654Z,91.97
2023-02-11T07:39:38.639Z,92.24
2023-02-11T07:40:38.639Z,91.62
2023-02-11T07:41:38.670Z,90.89
2023-02-11T07:42:38.616Z,90.58
2023-02-11T07:43:38.606Z,90.69
2023-02-11T07:44:38.624Z,90.33
2023-02-11T07:45:38.575Z,90.64
2023-02-11T07:46:38.599Z,90.23
2023-02-11T07:47:38.824Z,90.06
2023-02-11T07:48:38.556Z,89.96
2023-02-11T07:49:38.583Z,90.62
2023-02-11T07:50:38.549Z,91.76
2023-02-11T07:51:38.529Z,91.76
2023-02-11T07:52:38.507Z,91.97
2023-02-11T07:53:38.518Z,92.18
2023-02-11T07:54:38.500Z,91.86
2023-02-11T07:55:38.466Z,92.14
2023-02-11T07:56:38.484Z,91.86
2023-02-11T07:57:38.496Z,92.18
2023-02-11T07:58:38.444Z,92.28
2023-02-11T07:59:38.464Z,92.18
2023-02-11T08:00:38.510Z,92.18
2023-02-11T08:01:38.523Z,91.86
2023-02-11T08:02:38.413Z,91.86
2023-02-11T08:03:38.410Z,91.86
2023-02-11T08:04:38.396Z,91.86
2023-02-11T08:05:38.399Z,92.18
2023-02-11T08:06:38.380Z,92.38
2023-02-11T08:07:38.343Z,91.86
2023-02-11T08:08:38.355Z,92.18
2023-02-11T08:09:38.349Z,92.32
2023-02-11T08:10:38.336Z,92.22
2023-02-11T08:11:38.334Z,92.11
2023-02-11T08:12:38.291Z,92.32
2023-02-11T08:13:38.279Z,92.18
2023-02-11T08:14:38.304Z,92.07
2023-02-11T08:15:38.276Z,92.22
2023-02-11T08:16:38.305Z,92.01
2023-02-11T08:17:38.292Z,91.80
2023-02-11T08:18:38.264Z,92.22
2023-02-11T08:19:38.231Z,92.11
2023-02-11T08:20:38.252Z,92.43
2023-02-11T08:21:38.210Z,92.49
2023-02-11T08:22:38.187Z,92.07
2023-02-11T08:23:38.220Z,92.38
2023-02-11T08:24:38.179Z,92.18
2023-02-11T08:25:38.684Z,92.11
2023-02-11T08:26:38.162Z,92.18
2023-02-11T08:27:38.146Z,91.86
2023-02-11T08:28:38.134Z,92.07
2023-02-11T08:29:38.116Z,92.18
2023-02-11T08:30:38.175Z,92.22
2023-02-11T08:31:38.229Z,92.22
2023-02-11T08:32:38.089Z,92.32
2023-02-11T08:33:38.092Z,92.43
2023-02-11T08:34:38.077Z,92.07
2023-02-11T08:35:38.067Z,92.22
2023-02-11T08:36:38.064Z,92.28
2023-02-11T08:37:38.043Z,92.53
2023-02-11T08:38:38.032Z,91.97
2023-02-11T08:39:38.040Z,92.53
2023-02-11T08:40:38.016Z,92.28
2023-02-11T08:41:37.997Z,92.43
2023-02-11T08:42:38.000Z,92.49
2023-02-11T08:43:38.021Z,92.18
2023-02-11T08:44:37.984Z,92.07
2023-02-11T08:45:37.976Z,92.18
2023-02-11T08:46:37.949Z,91.66
2023-02-11T08:47:37.939Z,91.97
2023-02-11T08:48:38.649Z,92.14
2023-02-11T08:49:37.910Z,91.97
2023-02-11T08:50:37.918Z,91.86
2023-02-11T08:51:37.957Z,92.07
2023-02-11T08:52:37.908Z,92.38
2023-02-11T08:53:37.894Z,92.80
2023-02-11T08:54:37.869Z,92.59
2023-02-11T08:55:37.860Z,92.80
2023-02-11T08:56:37.849Z,92.69
2023-02-11T08:57:37.835Z,92.55
2023-02-11T08:58:37.876Z,92.38
2023-02-11T08:59:37.810Z,92.38
2023-02-11T09:00:37.852Z,92.66
2023-02-11T09:01:37.918Z,92.03
2023-02-11T09:02:37.851Z,92.24
2023-02-11T09:03:37.770Z,92.03
2023-02-11T09:04:37.785Z,92.03
2023-02-11T09:05:37.737Z,92.14
2023-02-11T09:06:37.752Z,92.10
2023-02-11T09:07:37.744Z,91.72
2023-02-11T09:08:37.709Z,92.24
2023-02-11T09:09:37.734Z,92.14
2023-02-11T09:10:37.702Z,92.20
2023-02-11T09:11:37.702Z,91.68
2023-02-11T09:12:37.688Z,92.10
2023-02-11T09:13:37.676Z,92.03
2023-02-11T09:14:37.664Z,91.89
2023-02-11T09:15:37.675Z,91.99
2023-02-11T09:16:37.717Z,91.52
2023-02-11T09:17:37.659Z,91.68
2023-02-11T09:18:37.613Z,91.58
2023-02-11T09:19:37.611Z,91.27
2023-02-11T09:20:37.604Z,91.16
2023-02-11T09:21:37.607Z,91.78
2023-02-11T09:22:38.137Z,91.37
2023-02-11T09:23:37.567Z,92.05
2023-02-11T09:24:37.569Z,91.02
2023-02-11T09:25:37.748Z,90.70
2023-02-11T09:26:37.547Z,91.37
2023-02-11T09:27:37.538Z,91.27
2023-02-11T09:28:37.685Z,91.89
2023-02-11T09:29:37.513Z,91.37
2023-02-11T09:30:37.608Z,91.89
2023-02-11T09:31:37.660Z,91.99
2023-02-11T09:32:37.515Z,91.58
2023-02-11T09:33:37.487Z,90.39
2023-02-11T09:34:37.492Z,91.43
2023-02-11T09:35:37.460Z,91.02
2023-02-11T09:36:37.531Z,90.14
2023-02-11T09:37:37.583Z,89.62
2023-02-11T09:38:38.419Z,89.21
2023-02-11T09:39:37.412Z,89.52
2023-02-11T09:40:37.406Z,89.52
2023-02-11T09:41:37.395Z,89.52
2023-02-11T09:42:37.398Z,89.83
2023-02-11T09:43:37.370Z,88.79
2023-02-11T09:44:37.388Z,88.96
2023-02-11T09:45:37.350Z,88.92
2023-02-11T09:46:37.358Z,88.30
2023-02-11T09:47:37.364Z,87.64
2023-02-11T09:48:37.325Z,87.02
2023-02-11T09:49:37.305Z,87.16
2023-02-11T09:50:37.306Z,87.57
2023-02-11T09:51:37.321Z,87.68
2023-02-11T09:52:37.286Z,88.03
2023-02-11T09:53:37.275Z,88.45
2023-02-11T09:54:37.292Z,88.09
2023-02-11T09:55:37.244Z,87.64
2023-02-11T09:56:37.254Z,87.12
2023-02-11T09:57:37.261Z,85.99
2023-02-11T09:58:37.214Z,86.19
2023-02-11T09:59:37.222Z,86.85
2023-02-11T10:00:37.215Z,88.45
2023-02-11T10:01:37.217Z,88.40
2023-02-11T10:02:37.175Z,87.78
2023-02-11T10:03:37.223Z,87.64
2023-02-11T10:04:37.238Z,87.33
2023-02-11T10:05:37.157Z,86.50
2023-02-11T10:06:37.161Z,87.37
2023-02-11T10:07:37.133Z,87.68
2023-02-11T10:08:37.143Z,87.74
2023-02-11T10:09:37.109Z,87.33
2023-02-11T10:10:37.106Z,87.23
2023-02-11T10:11:37.134Z,87.33
2023-02-11T10:12:37.086Z,87.27
2023-02-11T10:13:37.100Z,87.47
2023-02-11T10:14:37.094Z,87.57
2023-02-11T10:15:37.087Z,88.30
2023-02-11T10:16:37.033Z,88.13
2023-02-11T10:17:37.039Z,88.71
2023-02-11T10:18:37.066Z,88.20
2023-02-11T10:19:37.032Z,88.26
2023-02-11T10:20:37.013Z,87.85
2023-02-11T10:21:37.028Z,87.64
2023-02-11T10:22:36.998Z,87.74
2023-02-11T10:23:36.976Z,88.09
2023-02-11T10:24:36.979Z,88.20
2023-02-11T10:25:36.955Z,88.34
2023-02-11T10:26:36.942Z,87.37
2023-02-11T10:27:36.981Z,87.47
2023-02-11T10:28:37.021Z,87.99
2023-02-11T10:29:36.905Z,87.74
2023-02-11T10:30:36.946Z,87.64
2023-02-11T10:31:37.091Z,86.46
2023-02-11T10:32:36.899Z,86.71
2023-02-11T10:33:36.898Z,86.67
2023-02-11T10:34:36.882Z,86.46
2023-02-11T10:35:36.890Z,86.71
2023-02-11T10:36:36.844Z,87.08
2023-02-11T10:37:36.870Z,86.77
2023-02-11T10:38:36.819Z,86.63
2023-02-11T10:39:36.810Z,85.94
2023-02-11T10:40:36.797Z,86.52
2023-02-11T10:41:37.883Z,85.76
2023-02-11T10:42:36.784Z,85.76
2023-02-11T10:43:36.797Z,85.55
2023-02-11T10:44:36.759Z,85.97
2023-02-11T10:45:36.768Z,85.45
2023-02-11T10:46:36.821Z,85.04
2023-02-11T10:47:36.729Z,85.21
2023-02-11T10:48:36.738Z,84.79
2023-02-11T10:49:36.727Z,84.87
2023-02-11T10:50:36.703Z,85.35
2023-02-11T10:51:36.676Z,85.76
2023-02-11T10:52:36.682Z,85.93
2023-02-11T10:53:36.659Z,85.93
2023-02-11T10:54:36.666Z,85.10
2023-02-11T10:55:36.640Z,84.79
2023-02-11T10:56:36.640Z,84.69
2023-02-11T10:57:36.613Z,84.59
2023-02-11T10:58:36.615Z,84.69
2023-02-11T10:59:36.649Z,84.65
2023-02-11T11:00:36.595Z,83.78
2023-02-11T11:01:36.606Z,84.07
2023-02-11T11:02:36.582Z,84.34
2023-02-11T11:03:36.564Z,84.13
2023-02-11T11:04:36.630Z,84.23
2023-02-11T11:05:36.542Z,84.20
2023-02-11T11:06:36.530Z,83.99
2023-02-11T11:07:36.564Z,83.64
2023-02-11T11:08:36.514Z,82.96
2023-02-11T11:09:36.487Z,83.33
2023-02-11T11:10:36.490Z,83.13
2023-02-11T11:11:36.462Z,83.33
2023-02-11T11:12:36.477Z,83.29
2023-02-11T11:13:36.465Z,82.68
2023-02-11T11:14:36.465Z,82.68
2023-02-11T11:15:36.481Z,82.92
2023-02-11T11:16:36.404Z,82.75
2023-02-11T11:17:36.427Z,83.48
2023-02-11T11:18:36.391Z,84.27
2023-02-11T11:19:36.434Z,83.64
2023-02-11T11:20:36.349Z,83.91
2023-02-11T11:21:36.347Z,82.57
2023-02-11T11:22:36.363Z,82.81
2023-02-11T11:23:36.321Z,81.77
2023-02-11T11:24:36.345Z,80.85
2023-02-11T11:25:36.325Z,80.99
2023-02-11T11:26:36.300Z,81.51
2023-02-11T11:27:36.307Z,82.02
2023-02-11T11:28:36.334Z,81.96
2023-02-11T11:29:36.293Z,83.13
2023-02-11T11:30:36.291Z,83.23
2023-02-11T11:31:36.387Z,83.85
2023-02-11T11:32:36.222Z,83.95
2023-02-11T11:33:36.659Z,84.06
2023-02-11T11:34:36.250Z,83.75
2023-02-11T11:35:36.213Z,83.64
2023-02-11T11:36:36.188Z,84.30
2023-02-11T11:37:36.190Z,84.81
2023-02-11T11:38:36.188Z,84.72
2023-02-11T11:39:36.179Z,85.17
2023-02-11T11:40:36.152Z,85.13
2023-02-11T11:41:36.130Z,84.72
2023-02-11T11:42:36.130Z,84.51
2023-02-11T11:43:36.109Z,85.02
2023-02-11T11:44:36.101Z,84.72
2023-02-11T11:45:36.109Z,84.61
2023-02-11T11:46:36.153Z,84.51
2023-02-11T11:47:36.074Z,84.30
2023-02-11T11:48:36.073Z,83.85
2023-02-11T11:49:36.044Z,83.68
2023-02-11T11:50:36.023Z,83.85
2023-02-11T11:51:36.008Z,83.75
2023-02-11T11:52:36.160Z,83.33
2023-02-11T11:53:35.994Z,83.33
2023-02-11T11:54:35.970Z,83.44
2023-02-11T11:55:35.988Z,83.13
2023-02-11T11:56:35.952Z,83.03
2023-02-11T11:57:35.959Z,82.92
2023-02-11T11:58:35.963Z,83.33
2023-02-11T11:59:35.938Z,83.75
2023-02-11T12:00:35.985Z,83.64
2023-02-11T12:01:35.928Z,83.64
2023-02-11T12:02:35.901Z,83.95
2023-02-11T12:03:35.885Z,83.95
2023-02-11T12:04:35.884Z,83.85
2023-02-11T12:05:35.867Z,83.64
2023-02-11T12:06:35.901Z,83.85
2023-02-11T12:07:35.833Z,84.27
2023-02-11T12:08:36.817Z,84.06
2023-02-11T12:09:35.838Z,84.22
2023-02-11T12:10:35.792Z,83.85
2023-02-11T12:11:36.135Z,83.91
2023-02-11T12:12:35.782Z,83.71
2023-02-11T12:13:35.758Z,83.56
2023-02-11T12:14:35.783Z,83.26
2023-02-11T12:15:35.740Z,83.15
2023-02-11T12:16:35.810Z,83.36
2023-02-11T12:17:35.719Z,82.84
2023-02-11T12:18:35.730Z,82.84
2023-02-11T12:19:35.774Z,82.95
2023-02-11T12:20:35.711Z,83.09
2023-02-11T12:21:36.142Z,83.19
2023-02-11T12:22:35.689Z,83.77
2023-02-11T12:23:35.674Z,83.67
2023-02-11T12:24:36.637Z,83.05
2023-02-11T12:25:35.664Z,83.36
2023-02-11T12:26:35.622Z,83.56
2023-02-11T12:27:35.830Z,82.81
2023-02-11T12:28:35.659Z,82.70
2023-02-11T12:29:35.591Z,82.29
2023-02-11T12:30:35.636Z,82.40
2023-02-11T12:31:35.913Z,82.29
2023-02-11T12:32:35.558Z,82.50
2023-02-11T12:33:35.598Z,82.19
2023-02-11T12:34:35.539Z,82.19
2023-02-11T12:35:35.545Z,82.84
2023-02-11T12:36:35.532Z,83.12
2023-02-11T12:37:35.518Z,83.47
2023-02-11T12:38:35.518Z,83.56
2023-02-11T12:39:35.500Z,83.22
2023-02-11T12:40:35.502Z,83.56
2023-02-11T12:41:35.482Z,84.91
2023-02-11T12:42:35.463Z,84.31
2023-02-11T12:43:35.506Z,82.42
2023-02-11T12:44:35.467Z,81.97
2023-02-11T12:45:35.689Z,81.35
2023-02-11T12:46:35.396Z,80.91
2023-02-11T12:47:35.419Z,79.61
2023-02-11T12:48:35.912Z,80.63
2023-02-11T12:49:36.390Z,80.43
2023-02-11T12:50:35.362Z,81.09
2023-02-11T12:51:35.350Z,80.47
2023-02-11T12:52:35.332Z,80.84